Newcastle, California
Current Conditions -  °F | °C
As of 1:55 AM on Friday 28 Nov 2014 (Local Time) from KAUN Reporting Station
Clear Clear  
Wind Chill: 54°   Ceiling: Unl
Heat Index: 54°   Visibility: 10mi
Dew Point: 36°   Wind: 7mph
Humidity: 51%   Direction: 120°ESE
Pressure: 30.06"   Gusts: NA
Location:  38.87°N, 121.14°W
Report Text: KAUN 280955Z AUTO 12006KT 10SM CLR 12/02 A3006 RMK AO1
Loading
Personal Weather Stations






























Interactive Weather Map New forecast layout! Learn more

10-Day Weather Forecast

Advertisements
Track Severe Weather on mobile